createdAt,value
2018-09-05T00:01:34.468Z,94.50
2018-09-05T00:04:04.568Z,94.80
2018-09-05T00:06:35.204Z,94.20
2018-09-05T00:09:07.168Z,94.00
2018-09-05T00:11:37.903Z,93.40
2018-09-05T00:14:08.714Z,93.50
2018-09-05T00:16:39.008Z,93.80
2018-09-05T00:19:09.104Z,93.60
2018-09-05T00:21:39.388Z,93.30
2018-09-05T00:24:09.424Z,93.60
2018-09-05T00:26:39.563Z,93.60
2018-09-05T00:29:09.598Z,94.60
2018-09-05T00:31:39.750Z,94.20
2018-09-05T00:34:10.120Z,94.40
2018-09-05T00:36:40.236Z,93.60
2018-09-05T00:39:10.677Z,93.20
2018-09-05T00:41:41.131Z,94.20
2018-09-05T00:44:11.647Z,93.10
2018-09-05T00:46:41.754Z,93.00
2018-09-05T00:49:11.989Z,93.00
2018-09-05T00:51:42.305Z,92.90
2018-09-05T00:54:18.917Z,93.40
2018-09-05T00:56:49.017Z,92.90
2018-09-05T00:59:19.201Z,93.20
2018-09-05T01:01:49.276Z,93.30
2018-09-05T01:04:19.383Z,93.80
2018-09-05T01:06:49.472Z,93.90
2018-09-05T01:09:19.536Z,93.40
2018-09-05T01:11:49.618Z,93.00
2018-09-05T01:14:19.700Z,93.20
2018-09-05T01:19:51.577Z,94.10
2018-09-05T01:22:21.680Z,93.40
2018-09-05T01:24:51.824Z,93.40
2018-09-05T01:27:21.912Z,93.70
2018-09-05T01:29:52.048Z,93.00
2018-09-05T01:32:22.157Z,92.80
2018-09-05T01:34:52.240Z,92.70
2018-09-05T01:37:22.352Z,92.80
2018-09-05T01:39:53.140Z,92.70
2018-09-05T01:42:23.224Z,92.60
2018-09-05T01:44:53.300Z,93.10
2018-09-05T01:47:23.364Z,92.70
2018-09-05T01:49:53.424Z,92.70
2018-09-05T01:52:23.464Z,92.70
2018-09-05T01:54:53.593Z,92.90
2018-09-05T01:57:23.724Z,93.00
2018-09-05T01:59:54.103Z,93.00
2018-09-05T02:02:24.944Z,93.10
2018-09-05T02:04:55.879Z,93.20
2018-09-05T02:07:25.960Z,93.10
2018-09-05T02:09:56.028Z,93.40
2018-09-05T02:12:26.808Z,93.00
2018-09-05T02:14:57.036Z,93.20
2018-09-05T02:17:27.156Z,93.80
2018-09-05T02:19:57.864Z,93.80
2018-09-05T02:22:27.992Z,94.00
2018-09-05T02:24:58.065Z,93.90
2018-09-05T02:27:28.169Z,93.30
2018-09-05T02:29:58.278Z,93.30
2018-09-05T02:32:28.356Z,93.30
2018-09-05T02:34:58.414Z,93.00
2018-09-05T02:37:28.903Z,94.70
2018-09-05T02:39:59.012Z,93.80
2018-09-05T02:42:29.104Z,93.50
2018-09-05T02:44:59.152Z,93.20
2018-09-05T02:47:29.990Z,93.70
2018-09-05T02:50:00.585Z,93.90
2018-09-05T02:52:30.784Z,93.40
2018-09-05T02:55:00.864Z,94.30
2018-09-05T02:57:31.496Z,94.00
2018-09-05T03:00:01.596Z,93.80
2018-09-05T03:02:32.296Z,93.80
2018-09-05T03:05:02.372Z,93.40
2018-09-05T03:07:32.456Z,93.20
2018-09-05T03:10:02.556Z,93.90
2018-09-05T03:12:32.598Z,93.70
2018-09-05T03:15:03.016Z,93.30
2018-09-05T03:17:33.112Z,93.10
2018-09-05T03:20:03.245Z,93.20
2018-09-05T03:22:33.323Z,93.10
2018-09-05T03:25:03.892Z,93.20
2018-09-05T03:27:33.980Z,93.20
2018-09-05T03:30:04.264Z,93.90
2018-09-05T03:32:35.391Z,94.10
2018-09-05T03:35:05.514Z,93.80
2018-09-05T03:37:35.680Z,93.90
2018-09-05T03:40:06.655Z,93.80
2018-09-05T03:42:37.408Z,93.60
2018-09-05T03:45:07.568Z,93.20
2018-09-05T03:47:37.684Z,93.50
2018-09-05T03:50:09.792Z,93.40
2018-09-05T03:52:40.670Z,93.60
2018-09-05T03:55:12.110Z,94.40
2018-09-05T03:57:42.788Z,94.40
2018-09-05T04:00:13.332Z,93.90
2018-09-05T04:02:43.476Z,94.10
2018-09-05T04:05:14.236Z,94.00
2018-09-05T04:07:44.788Z,94.40
2018-09-05T04:10:15.437Z,94.30
2018-09-05T04:12:45.564Z,94.00
2018-09-05T04:15:16.369Z,94.00
2018-09-05T04:17:46.476Z,94.30
2018-09-05T04:20:16.736Z,94.90
2018-09-05T04:22:46.854Z,94.80
2018-09-05T04:25:16.974Z,95.00
2018-09-05T04:27:47.062Z,94.90
2018-09-05T04:30:17.244Z,95.10
2018-09-05T04:32:47.392Z,95.00
2018-09-05T04:35:17.609Z,95.00
2018-09-05T04:37:47.721Z,95.10
2018-09-05T04:40:18.635Z,94.80
2018-09-05T04:42:48.776Z,94.60
2018-09-05T04:45:19.114Z,94.50
2018-09-05T04:47:49.221Z,94.40
2018-09-05T04:50:19.488Z,94.70
2018-09-05T04:52:49.958Z,95.00
2018-09-05T04:55:20.080Z,95.10
2018-09-05T04:57:50.261Z,94.70
2018-09-05T05:00:20.451Z,94.50
2018-09-05T05:02:50.696Z,95.00
2018-09-05T05:05:20.897Z,94.90
2018-09-05T05:07:50.992Z,94.70
2018-09-05T05:10:21.645Z,95.80
2018-09-05T05:12:51.764Z,95.60
2018-09-05T05:15:23.196Z,95.80
2018-09-05T05:17:53.300Z,95.40
2018-09-05T05:20:24.572Z,95.60
2018-09-05T05:22:54.716Z,95.00
2018-09-05T05:25:26.444Z,95.00
2018-09-05T05:27:56.552Z,94.90
2018-09-05T05:30:27.479Z,94.70
2018-09-05T05:32:57.675Z,95.30
2018-09-05T05:35:27.792Z,95.10
2018-09-05T05:37:57.987Z,95.40
2018-09-05T05:40:29.034Z,95.70
2018-09-05T05:42:59.235Z,95.60
2018-09-05T05:45:29.346Z,95.90
2018-09-05T05:47:59.551Z,95.50
2018-09-05T05:50:29.668Z,96.30
2018-09-05T05:53:00.560Z,96.40
2018-09-05T05:55:31.286Z,96.60
2018-09-05T05:58:01.412Z,96.50
2018-09-05T06:00:31.567Z,96.20
2018-09-05T06:03:02.047Z,96.60
2018-09-05T06:05:32.156Z,96.20
2018-09-05T06:08:02.265Z,97.00
2018-09-05T06:10:32.417Z,97.00
2018-09-05T06:13:02.538Z,97.00
2018-09-05T06:15:32.723Z,96.90
2018-09-05T06:18:02.886Z,96.60
2018-09-05T06:20:33.005Z,96.60
2018-09-05T06:23:04.001Z,96.70
2018-09-05T06:25:34.116Z,95.90
2018-09-05T06:28:04.360Z,96.40
2018-09-05T06:30:35.100Z,96.40
2018-09-05T06:33:05.181Z,96.60
2018-09-05T06:35:35.922Z,96.60
2018-09-05T06:38:06.068Z,96.20
2018-09-05T06:40:36.148Z,96.30
2018-09-05T06:43:07.143Z,96.30
2018-09-05T06:45:37.257Z,96.10
2018-09-05T06:48:07.368Z,96.00
2018-09-05T06:50:37.513Z,95.70
2018-09-05T06:53:07.900Z,95.60
2018-09-05T06:55:38.000Z,95.40
2018-09-05T06:58:08.927Z,95.20
2018-09-05T07:00:39.128Z,95.40
2018-09-05T07:03:09.804Z,94.90
2018-09-05T07:05:40.732Z,94.50
2018-09-05T07:08:10.912Z,93.90
2018-09-05T07:10:42.045Z,92.70
2018-09-05T07:13:12.634Z,92.60
2018-09-05T07:15:43.316Z,92.20
2018-09-05T07:18:13.468Z,92.10
2018-09-05T07:20:45.000Z,91.70
2018-09-05T07:23:15.144Z,91.50
2018-09-05T07:25:45.238Z,91.30
2018-09-05T07:28:15.396Z,91.20
2018-09-05T07:30:45.650Z,91.20
2018-09-05T07:33:16.298Z,91.40
2018-09-05T07:35:47.109Z,91.30
2018-09-05T07:38:19.175Z,91.00
2018-09-05T07:40:49.321Z,91.60
2018-09-05T07:43:19.391Z,91.20
2018-09-05T07:45:50.037Z,91.50
2018-09-05T07:48:20.747Z,91.30
2018-09-05T07:50:50.911Z,91.30
2018-09-05T07:53:21.800Z,91.30
2018-09-05T07:55:53.404Z,91.60
2018-09-05T07:58:23.576Z,91.20
2018-09-05T08:00:53.676Z,90.40
2018-09-05T08:03:24.308Z,90.40
2018-09-05T08:05:55.016Z,89.90
2018-09-05T08:08:25.115Z,90.10
2018-09-05T08:10:55.212Z,90.10
2018-09-05T08:13:25.964Z,88.90
2018-09-05T08:15:56.863Z,88.60
2018-09-05T08:18:27.718Z,88.30
2018-09-05T08:20:57.816Z,88.20
2018-09-05T08:23:27.900Z,88.20
2018-09-05T08:25:57.950Z,88.00
2018-09-05T08:28:28.076Z,87.10
2018-09-05T08:30:58.233Z,87.20
2018-09-05T08:33:28.444Z,86.50
2018-09-05T08:35:58.966Z,85.90
2018-09-05T08:38:28.921Z,86.40
2018-09-05T08:41:02.553Z,85.80
2018-09-05T08:43:33.139Z,85.30
2018-09-05T08:46:03.504Z,84.80
2018-09-05T08:48:35.057Z,83.20
2018-09-05T08:51:05.444Z,83.10
2018-09-05T08:53:35.584Z,82.00
2018-09-05T08:56:05.891Z,82.10
2018-09-05T08:58:36.054Z,80.70
2018-09-05T09:01:07.029Z,79.00
2018-09-05T09:03:37.141Z,79.70
2018-09-05T09:06:07.429Z,79.00
2018-09-05T09:08:37.583Z,79.70
2018-09-05T09:11:08.503Z,78.70
2018-09-05T09:13:39.354Z,78.60
2018-09-05T09:16:09.740Z,76.00
2018-09-05T09:18:39.916Z,73.50
2018-09-05T09:21:10.136Z,76.00
2018-09-05T09:23:40.275Z,74.90
2018-09-05T09:26:11.252Z,73.80
2018-09-05T09:28:41.492Z,72.90
2018-09-05T09:31:12.238Z,72.70
2018-09-05T09:33:42.408Z,72.40
2018-09-05T09:36:12.557Z,71.90
2018-09-05T09:38:42.796Z,71.70
2018-09-05T09:41:13.520Z,71.60
2018-09-05T09:43:43.656Z,71.40
2018-09-05T09:46:13.758Z,72.00
2018-09-05T09:48:43.915Z,69.70
2018-09-05T09:51:15.049Z,69.60
2018-09-05T09:53:46.048Z,70.10
2018-09-05T09:56:16.173Z,69.40
2018-09-05T09:58:47.033Z,68.70
2018-09-05T10:01:23.390Z,67.40
2018-09-05T10:03:58.883Z,66.00
2018-09-05T10:06:34.352Z,67.30
2018-09-05T10:09:12.456Z,67.40
2018-09-05T10:11:47.855Z,66.80
2018-09-05T10:14:24.065Z,64.60
2018-09-05T10:16:59.503Z,63.90
2018-09-05T10:19:29.696Z,65.00
2018-09-05T10:22:00.960Z,64.90
2018-09-05T10:24:31.089Z,65.20
2018-09-05T10:27:01.207Z,65.90
2018-09-05T10:29:32.284Z,65.20
2018-09-05T10:32:02.467Z,64.50
2018-09-05T10:34:32.616Z,63.50
2018-09-05T10:37:02.784Z,65.30
2018-09-05T10:39:32.957Z,62.90
2018-09-05T10:42:03.272Z,63.60
2018-09-05T10:44:34.723Z,64.60
2018-09-05T10:47:06.024Z,64.40
2018-09-05T10:49:36.811Z,64.10
2018-09-05T10:52:08.160Z,65.30
2018-09-05T10:54:38.336Z,63.70
2018-09-05T10:57:08.463Z,62.30
2018-09-05T10:59:38.612Z,61.60
2018-09-05T11:02:08.762Z,62.10
2018-09-05T11:04:39.628Z,63.10
2018-09-05T11:07:09.768Z,64.60
2018-09-05T11:09:39.923Z,63.40
2018-09-05T11:12:11.325Z,61.40
2018-09-05T11:14:42.156Z,62.80
2018-09-05T11:17:12.348Z,63.00
2018-09-05T11:19:42.545Z,63.10
2018-09-05T11:22:13.294Z,61.80
2018-09-05T11:24:43.449Z,63.50
2018-09-05T11:27:13.605Z,60.60
2018-09-05T11:29:43.725Z,61.00
2018-09-05T11:32:13.928Z,61.20
2018-09-05T11:34:44.067Z,61.70
2018-09-05T11:37:14.193Z,61.50
2018-09-05T11:39:44.311Z,62.10
2018-09-05T11:42:14.428Z,63.60
2018-09-05T11:44:44.600Z,63.20
2018-09-05T11:47:14.767Z,62.10
2018-09-05T11:49:45.581Z,64.20
2018-09-05T11:52:15.697Z,65.40
2018-09-05T11:54:45.792Z,62.00
2018-09-05T11:57:16.444Z,65.00
2018-09-05T11:59:46.945Z,67.00
2018-09-05T12:02:17.509Z,66.10
2018-09-05T12:04:48.000Z,65.70
2018-09-05T12:07:18.198Z,63.50
2018-09-05T12:09:48.376Z,64.40
2018-09-05T12:12:19.272Z,66.90
2018-09-05T12:14:50.448Z,66.60
2018-09-05T12:17:20.628Z,69.20
2018-09-05T12:19:50.788Z,66.90
2018-09-05T12:22:21.461Z,65.00
2018-09-05T12:24:52.384Z,65.90
2018-09-05T12:27:22.577Z,67.60
2018-09-05T12:29:52.704Z,67.40
2018-09-05T12:32:22.849Z,67.50
2018-09-05T12:34:53.020Z,69.20
2018-09-05T12:37:23.120Z,69.60
2018-09-05T12:39:53.292Z,69.20
2018-09-05T12:42:23.939Z,70.30
2018-09-05T12:44:54.892Z,68.50
2018-09-05T12:47:25.602Z,68.70
2018-09-05T12:49:56.641Z,70.00
2018-09-05T12:52:27.108Z,70.00
2018-09-05T12:54:57.792Z,71.10
2018-09-05T12:57:28.149Z,70.60
2018-09-05T12:59:58.388Z,69.80
2018-09-05T13:02:28.517Z,70.30
2018-09-05T13:04:58.730Z,72.00
2018-09-05T13:07:29.009Z,72.80
2018-09-05T13:09:59.215Z,73.30
2018-09-05T13:12:29.997Z,73.50
2018-09-05T13:15:00.876Z,72.30
2018-09-05T13:17:31.594Z,71.60
2018-09-05T13:20:01.876Z,71.10
2018-09-05T13:22:32.044Z,70.30
2018-09-05T13:25:02.288Z,71.10
2018-09-05T13:27:32.630Z,71.60
2018-09-05T13:30:02.813Z,72.30
2018-09-05T13:32:32.921Z,69.00
2018-09-05T13:35:03.740Z,70.00
2018-09-05T13:37:34.185Z,71.00
2018-09-05T13:40:04.453Z,71.10
2018-09-05T13:42:35.153Z,70.80
2018-09-05T13:45:06.060Z,71.20
2018-09-05T13:47:38.553Z,71.40
2018-09-05T13:50:08.953Z,71.80
2018-09-05T13:52:39.159Z,70.30
2018-09-05T13:55:09.832Z,71.10
2018-09-05T13:57:40.013Z,70.00
2018-09-05T14:00:14.384Z,70.10
2018-09-05T14:02:45.890Z,71.60
2018-09-05T14:05:17.229Z,71.50
2018-09-05T14:07:47.344Z,71.30
2018-09-05T14:10:17.980Z,71.50
2018-09-05T14:12:48.123Z,71.00
2018-09-05T14:15:18.660Z,70.50
2018-09-05T14:17:49.044Z,70.90
2018-09-05T14:20:19.215Z,70.80
2018-09-05T14:22:49.664Z,71.00
2018-09-05T14:25:21.345Z,70.90
2018-09-05T14:27:51.481Z,71.20
2018-09-05T14:30:21.633Z,72.10
2018-09-05T14:32:51.736Z,71.70
2018-09-05T14:35:21.880Z,71.50
2018-09-05T14:37:52.099Z,71.80
2018-09-05T14:40:23.143Z,71.60
2018-09-05T14:42:54.072Z,70.80
2018-09-05T14:45:24.189Z,70.90
2018-09-05T14:47:54.297Z,71.50
2018-09-05T14:50:25.057Z,73.10
2018-09-05T14:52:55.643Z,73.80
2018-09-05T14:55:26.350Z,74.40
2018-09-05T14:57:56.463Z,73.90
2018-09-05T15:00:26.649Z,73.60
2018-09-05T15:02:58.451Z,74.80
2018-09-05T15:05:28.593Z,75.20
2018-09-05T15:07:58.697Z,75.50
2018-09-05T15:10:29.500Z,76.50
2018-09-05T15:12:59.672Z,77.10
2018-09-05T15:15:30.456Z,77.40
2018-09-05T15:18:00.552Z,77.80
2018-09-05T15:20:30.662Z,77.50
2018-09-05T15:23:00.811Z,77.50
2018-09-05T15:25:31.512Z,78.00
2018-09-05T15:28:02.780Z,78.10
2018-09-05T15:30:34.309Z,78.40
2018-09-05T15:33:04.621Z,78.80
2018-09-05T15:35:35.700Z,78.60
2018-09-05T15:38:06.373Z,79.00
2018-09-05T15:40:36.545Z,79.50
2018-09-05T15:43:06.712Z,79.10
2018-09-05T15:45:38.219Z,79.60
2018-09-05T15:48:08.377Z,79.60
2018-09-05T15:50:39.164Z,80.60
2018-09-05T15:53:09.392Z,80.60
2018-09-05T15:55:39.582Z,80.90
2018-09-05T15:58:09.847Z,81.10
2018-09-05T16:00:39.993Z,81.50
2018-09-05T16:03:10.097Z,81.80
2018-09-05T16:05:40.187Z,81.80
2018-09-05T16:08:10.324Z,81.90
2018-09-05T16:10:40.480Z,81.70
2018-09-05T16:13:11.232Z,82.40
2018-09-05T16:15:41.676Z,82.70
2018-09-05T16:18:13.316Z,82.70
2018-09-05T16:20:43.940Z,82.60
2018-09-05T16:23:15.254Z,82.60
2018-09-05T16:25:45.385Z,82.70
2018-09-05T16:28:15.492Z,82.40
2018-09-05T16:30:46.094Z,80.80
2018-09-05T16:33:16.224Z,80.50
2018-09-05T16:35:47.117Z,79.50
2018-09-05T16:38:17.728Z,79.50
2018-09-05T16:40:47.885Z,79.10
2018-09-05T16:43:18.030Z,78.90
2018-09-05T16:45:48.111Z,79.10
2018-09-05T16:48:19.393Z,79.30
2018-09-05T16:50:49.527Z,79.50
2018-09-05T16:53:19.641Z,80.00
2018-09-05T16:55:49.716Z,80.20
2018-09-05T16:58:19.971Z,80.40
2018-09-05T17:00:50.814Z,80.80
2018-09-05T17:03:21.005Z,81.30
2018-09-05T17:05:51.100Z,81.60
2018-09-05T17:08:21.189Z,82.30
2018-09-05T17:10:51.360Z,82.70
2018-09-05T17:13:21.473Z,82.80
2018-09-05T17:15:51.593Z,83.10
2018-09-05T17:18:21.796Z,82.90
2018-09-05T17:20:51.988Z,83.30
2018-09-05T17:23:22.449Z,83.30
2018-09-05T17:25:52.872Z,83.50
2018-09-05T17:28:24.672Z,83.90
2018-09-05T17:30:55.040Z,83.70
2018-09-05T17:33:25.798Z,84.00
2018-09-05T17:35:57.237Z,84.40
2018-09-05T17:38:27.913Z,84.20
2018-09-05T17:40:58.284Z,84.40
2018-09-05T17:43:28.396Z,85.00
2018-09-05T17:45:58.716Z,85.40
2018-09-05T17:48:29.102Z,85.60
2018-09-05T17:50:59.201Z,85.60
2018-09-05T17:53:29.517Z,85.50
2018-09-05T17:55:59.547Z,86.10
2018-09-05T17:58:29.612Z,86.40
2018-09-05T18:01:01.706Z,86.80
2018-09-05T18:03:31.792Z,87.10
2018-09-05T18:06:02.020Z,87.40
2018-09-05T18:08:32.088Z,87.50
2018-09-05T18:11:02.207Z,87.20
2018-09-05T18:13:32.333Z,87.50
2018-09-05T18:16:02.412Z,87.80
2018-09-05T18:18:32.548Z,87.40
2018-09-05T18:21:02.600Z,87.60
2018-09-05T18:23:32.673Z,87.50
2018-09-05T18:26:02.744Z,87.70
2018-09-05T18:28:32.852Z,87.10
2018-09-05T18:31:02.965Z,87.10
2018-09-05T18:33:33.045Z,86.90
2018-09-05T18:36:03.140Z,87.30
2018-09-05T18:38:33.237Z,87.80
2018-09-05T18:41:03.372Z,88.30
2018-09-05T18:43:33.448Z,88.20
2018-09-05T18:46:03.619Z,88.10
2018-09-05T18:48:33.656Z,88.10
2018-09-05T18:51:04.328Z,88.10
2018-09-05T18:53:34.408Z,88.40
2018-09-05T18:56:04.561Z,87.90
2018-09-05T18:58:34.755Z,88.00
2018-09-05T19:01:04.832Z,87.90
2018-09-05T19:03:34.864Z,88.30
2018-09-05T19:06:04.980Z,88.40
2018-09-05T19:08:35.037Z,88.30
2018-09-05T19:11:05.204Z,88.60
2018-09-05T19:13:35.256Z,88.80
2018-09-05T19:16:05.528Z,89.40
2018-09-05T19:18:35.584Z,89.80
2018-09-05T19:21:05.848Z,89.40
2018-09-05T19:23:35.943Z,89.90
2018-09-05T19:26:06.381Z,89.40
2018-09-05T19:28:36.456Z,89.70
2018-09-05T19:31:06.548Z,89.90
2018-09-05T19:33:36.632Z,89.80
2018-09-05T19:36:06.990Z,89.80
2018-09-05T19:38:36.961Z,90.10
2018-09-05T19:41:07.477Z,89.90
2018-09-05T19:43:37.768Z,89.90
2018-09-05T19:46:07.863Z,90.00
2018-09-05T19:48:37.939Z,90.10
2018-09-05T19:51:08.098Z,90.10
2018-09-05T19:53:38.460Z,90.20
2018-09-05T19:56:08.720Z,90.00
2018-09-05T19:58:38.788Z,89.80
2018-09-05T20:01:08.947Z,90.10
2018-09-05T20:03:39.044Z,90.10
2018-09-05T20:06:09.132Z,90.10
2018-09-05T20:08:39.937Z,90.30
2018-09-05T20:11:10.063Z,90.50
2018-09-05T20:13:40.129Z,90.70
2018-09-05T20:16:10.817Z,90.50
2018-09-05T20:18:41.013Z,90.60
2018-09-05T20:21:11.112Z,90.50
2018-09-05T20:23:41.297Z,90.60
2018-09-05T20:26:11.356Z,90.40
2018-09-05T20:28:41.516Z,90.20
2018-09-05T20:31:11.732Z,90.10
2018-09-05T20:33:41.832Z,90.00
2018-09-05T20:36:12.019Z,90.10
2018-09-05T20:38:42.092Z,90.40
2018-09-05T20:41:12.244Z,90.40
2018-09-05T20:43:42.537Z,90.40
2018-09-05T20:46:12.695Z,90.40
2018-09-05T20:48:42.772Z,90.30
2018-09-05T20:51:12.876Z,90.40
2018-09-05T20:53:42.983Z,90.70
2018-09-05T20:56:13.048Z,90.70
2018-09-05T20:58:43.176Z,91.20
2018-09-05T21:01:13.248Z,91.30
2018-09-05T21:03:44.188Z,91.60
2018-09-05T21:06:14.253Z,91.40
2018-09-05T21:08:44.483Z,91.90
2018-09-05T21:11:14.522Z,91.80
2018-09-05T21:13:44.616Z,91.80
2018-09-05T21:16:14.940Z,91.40
2018-09-05T21:18:45.000Z,91.40
2018-09-05T21:21:15.138Z,90.80
2018-09-05T21:23:45.200Z,90.90
2018-09-05T21:26:15.268Z,90.70
2018-09-05T21:28:45.383Z,90.90
2018-09-05T21:31:15.454Z,91.10
2018-09-05T21:33:45.529Z,91.00
2018-09-05T21:36:15.684Z,91.00
2018-09-05T21:38:45.847Z,90.70
2018-09-05T21:41:15.896Z,90.80
2018-09-05T21:43:45.972Z,90.80
2018-09-05T21:46:16.069Z,90.80
2018-09-05T21:48:46.692Z,90.80
2018-09-05T21:51:16.764Z,90.90
2018-09-05T21:53:47.384Z,90.90
2018-09-05T21:56:17.440Z,90.90
2018-09-05T21:58:47.488Z,91.00
2018-09-05T22:01:19.547Z,91.00
2018-09-05T22:03:51.236Z,91.00
2018-09-05T22:06:21.328Z,91.00
2018-09-05T22:08:51.400Z,91.30
2018-09-05T22:11:24.970Z,91.30
2018-09-05T22:13:55.692Z,91.40
2018-09-05T22:16:25.978Z,91.80
2018-09-05T22:18:56.080Z,91.60
2018-09-05T22:21:26.130Z,91.70
2018-09-05T22:23:56.196Z,91.50
2018-09-05T22:26:26.286Z,91.20
2018-09-05T22:28:56.380Z,91.40
2018-09-05T22:31:27.161Z,91.30
2018-09-05T22:33:57.236Z,91.50
2018-09-05T22:36:27.339Z,91.70
2018-09-05T22:38:57.385Z,91.80
2018-09-05T22:41:27.504Z,92.20
2018-09-05T22:44:08.733Z,92.20
2018-09-05T22:46:50.068Z,92.40
2018-09-05T22:52:13.594Z,92.40
2018-09-05T22:55:38.452Z,92.60
2018-09-05T22:58:23.483Z,92.80
2018-09-05T23:02:04.839Z,93.10
2018-09-05T23:04:47.377Z,93.60
2018-09-05T23:07:33.353Z,93.90
2018-09-05T23:10:14.966Z,93.60
2018-09-05T23:12:56.309Z,93.30
2018-09-05T23:15:37.461Z,93.10
2018-09-05T23:18:50.113Z,93.20
2018-09-05T23:21:24.420Z,93.10
2018-09-05T23:24:13.853Z,93.60
2018-09-05T23:26:43.936Z,93.40
2018-09-05T23:29:14.045Z,93.30
2018-09-05T23:31:44.121Z,93.40
2018-09-05T23:34:14.236Z,93.50
2018-09-05T23:36:44.319Z,93.50
2018-09-05T23:39:14.448Z,93.60
2018-09-05T23:41:44.588Z,93.70
2018-09-05T23:44:15.422Z,93.60
2018-09-05T23:46:45.485Z,93.70
2018-09-05T23:49:15.537Z,93.70
2018-09-05T23:51:45.561Z,93.80
2018-09-05T23:54:15.625Z,93.60
2018-09-05T23:56:45.808Z,93.60
2018-09-05T23:59:15.930Z,93.60
